sensor_id;sensor_type;location;lat;lon;timestamp;P1;durP1;ratioP1;P2;durP2;ratioP2
27740;SDS011;15134;48.768;9.184;2022-08-11T00:01:14;42.28;;;25.33;;
27740;SDS011;15134;48.768;9.184;2022-08-11T00:03:56;39.33;;;24.52;;
27740;SDS011;15134;48.768;9.184;2022-08-11T00:06:26;63.85;;;40.15;;
27740;SDS011;15134;48.768;9.184;2022-08-11T00:08:55;38.20;;;22.45;;
27740;SDS011;15134;48.768;9.184;2022-08-11T00:11:21;19.55;;;11.85;;
27740;SDS011;15134;48.768;9.184;2022-08-11T00:14:21;18.95;;;11.80;;
27740;SDS011;15134;48.768;9.184;2022-08-11T00:17:02;12.23;;;7.28;;
27740;SDS011;15134;48.768;9.184;2022-08-11T00:19:39;11.32;;;5.88;;
27740;SDS011;15134;48.768;9.184;2022-08-11T00:22:09;5.90;;;3.20;;
27740;SDS011;15134;48.768;9.184;2022-08-11T00:24:36;5.78;;;2.50;;
27740;SDS011;15134;48.768;9.184;2022-08-11T00:27:03;5.93;;;3.40;;
27740;SDS011;15134;48.768;9.184;2022-08-11T00:29:30;5.32;;;2.67;;
27740;SDS011;15134;48.768;9.184;2022-08-11T00:34:30;5.57;;;2.78;;
27740;SDS011;15134;48.768;9.184;2022-08-11T00:39:25;4.68;;;2.08;;
27740;SDS011;15134;48.768;9.184;2022-08-11T00:44:57;3.92;;;2.08;;
27740;SDS011;15134;48.768;9.184;2022-08-11T01:18:48;3.50;;;1.77;;
27740;SDS011;15134;48.768;9.184;2022-08-11T01:45:05;2.95;;;1.67;;
27740;SDS011;15134;48.768;9.184;2022-08-11T01:48:02;3.88;;;1.85;;
27740;SDS011;15134;48.768;9.184;2022-08-11T01:50:43;4.28;;;2.00;;
27740;SDS011;15134;48.768;9.184;2022-08-11T02:02:00;5.05;;;2.40;;
27740;SDS011;15134;48.768;9.184;2022-08-11T02:07:29;6.53;;;2.47;;
27740;SDS011;15134;48.768;9.184;2022-08-11T02:13:21;3.75;;;2.30;;
27740;SDS011;15134;48.768;9.184;2022-08-11T02:16:11;6.95;;;2.38;;
27740;SDS011;15134;48.768;9.184;2022-08-11T02:18:51;4.53;;;2.05;;
27740;SDS011;15134;48.768;9.184;2022-08-11T02:21:45;6.05;;;2.15;;
27740;SDS011;15134;48.768;9.184;2022-08-11T02:24:47;5.28;;;2.47;;
27740;SDS011;15134;48.768;9.184;2022-08-11T02:27:34;6.53;;;2.65;;
27740;SDS011;15134;48.768;9.184;2022-08-11T02:30:05;5.13;;;2.50;;
27740;SDS011;15134;48.768;9.184;2022-08-11T02:32:50;8.35;;;2.78;;
27740;SDS011;15134;48.768;9.184;2022-08-11T02:38:32;26.70;;;16.45;;
27740;SDS011;15134;48.768;9.184;2022-08-11T02:58:35;7.10;;;3.55;;
27740;SDS011;15134;48.768;9.184;2022-08-11T03:01:40;7.85;;;3.50;;
27740;SDS011;15134;48.768;9.184;2022-08-11T03:04:17;5.25;;;3.00;;
27740;SDS011;15134;48.768;9.184;2022-08-11T03:06:51;6.80;;;3.63;;
27740;SDS011;15134;48.768;9.184;2022-08-11T03:09:48;5.75;;;2.55;;
27740;SDS011;15134;48.768;9.184;2022-08-11T03:12:30;6.75;;;2.47;;
27740;SDS011;15134;48.768;9.184;2022-08-11T03:15:25;6.13;;;2.85;;
27740;SDS011;15134;48.768;9.184;2022-08-11T03:18:36;7.13;;;3.22;;
27740;SDS011;15134;48.768;9.184;2022-08-11T03:21:20;6.85;;;2.67;;
27740;SDS011;15134;48.768;9.184;2022-08-11T03:23:54;5.68;;;2.83;;
27740;SDS011;15134;48.768;9.184;2022-08-11T03:26:31;7.60;;;2.65;;
27740;SDS011;15134;48.768;9.184;2022-08-11T03:32:00;4.85;;;2.80;;
27740;SDS011;15134;48.768;9.184;2022-08-11T03:34:34;7.07;;;3.08;;
27740;SDS011;15134;48.768;9.184;2022-08-11T03:37:17;5.28;;;2.75;;
27740;SDS011;15134;48.768;9.184;2022-08-11T03:43:02;4.82;;;2.58;;
27740;SDS011;15134;48.768;9.184;2022-08-11T03:45:35;9.38;;;5.07;;
27740;SDS011;15134;48.768;9.184;2022-08-11T03:48:39;8.82;;;4.35;;
27740;SDS011;15134;48.768;9.184;2022-08-11T03:51:30;5.53;;;3.00;;
27740;SDS011;15134;48.768;9.184;2022-08-11T03:54:20;5.38;;;3.05;;
27740;SDS011;15134;48.768;9.184;2022-08-11T03:57:26;7.93;;;2.83;;
27740;SDS011;15134;48.768;9.184;2022-08-11T04:14:42;5.07;;;2.88;;
27740;SDS011;15134;48.768;9.184;2022-08-11T04:26:11;31.48;;;18.23;;
27740;SDS011;15134;48.768;9.184;2022-08-11T04:29:20;22.10;;;11.80;;
27740;SDS011;15134;48.768;9.184;2022-08-11T04:32:03;23.95;;;14.07;;
27740;SDS011;15134;48.768;9.184;2022-08-11T04:37:35;10.48;;;6.07;;
27740;SDS011;15134;48.768;9.184;2022-08-11T04:40:34;10.43;;;5.32;;
27740;SDS011;15134;48.768;9.184;2022-08-11T04:43:41;11.77;;;6.10;;
27740;SDS011;15134;48.768;9.184;2022-08-11T05:05:08;5.47;;;3.20;;
27740;SDS011;15134;48.768;9.184;2022-08-11T05:13:40;7.35;;;5.28;;
27740;SDS011;15134;48.768;9.184;2022-08-11T05:16:33;5.95;;;3.55;;
27740;SDS011;15134;48.768;9.184;2022-08-11T05:19:33;5.60;;;3.20;;
27740;SDS011;15134;48.768;9.184;2022-08-11T05:22:17;8.40;;;3.70;;
27740;SDS011;15134;48.768;9.184;2022-08-11T05:28:01;6.00;;;3.67;;
27740;SDS011;15134;48.768;9.184;2022-08-11T05:30:57;9.48;;;2.80;;
27740;SDS011;15134;48.768;9.184;2022-08-11T05:39:05;8.05;;;3.13;;
27740;SDS011;15134;48.768;9.184;2022-08-11T05:42:04;5.78;;;3.00;;
27740;SDS011;15134;48.768;9.184;2022-08-11T05:44:50;8.02;;;3.28;;
27740;SDS011;15134;48.768;9.184;2022-08-11T05:47:37;5.15;;;3.08;;
27740;SDS011;15134;48.768;9.184;2022-08-11T05:50:24;8.13;;;3.45;;
27740;SDS011;15134;48.768;9.184;2022-08-11T05:53:09;11.27;;;3.33;;
27740;SDS011;15134;48.768;9.184;2022-08-11T05:55:56;6.35;;;3.00;;
27740;SDS011;15134;48.768;9.184;2022-08-11T05:58:44;7.57;;;3.20;;
27740;SDS011;15134;48.768;9.184;2022-08-11T06:01:23;7.68;;;3.22;;
27740;SDS011;15134;48.768;9.184;2022-08-11T06:03:52;12.60;;;7.53;;
27740;SDS011;15134;48.768;9.184;2022-08-11T06:06:39;10.48;;;4.75;;
27740;SDS011;15134;48.768;9.184;2022-08-11T06:09:37;7.22;;;3.47;;
27740;SDS011;15134;48.768;9.184;2022-08-11T06:12:22;7.03;;;3.33;;
27740;SDS011;15134;48.768;9.184;2022-08-11T06:14:52;7.70;;;3.25;;
27740;SDS011;15134;48.768;9.184;2022-08-11T06:17:22;10.68;;;3.35;;
27740;SDS011;15134;48.768;9.184;2022-08-11T06:19:56;10.57;;;3.42;;
27740;SDS011;15134;48.768;9.184;2022-08-11T06:22:33;9.32;;;3.40;;
27740;SDS011;15134;48.768;9.184;2022-08-11T06:25:00;7.95;;;3.40;;
27740;SDS011;15134;48.768;9.184;2022-08-11T06:27:32;6.65;;;2.75;;
27740;SDS011;15134;48.768;9.184;2022-08-11T06:30:02;6.10;;;3.22;;
27740;SDS011;15134;48.768;9.184;2022-08-11T06:38:01;6.40;;;2.85;;
27740;SDS011;15134;48.768;9.184;2022-08-11T06:40:41;6.50;;;3.28;;
27740;SDS011;15134;48.768;9.184;2022-08-11T06:43:42;7.35;;;2.75;;
27740;SDS011;15134;48.768;9.184;2022-08-11T06:46:10;5.75;;;2.80;;
27740;SDS011;15134;48.768;9.184;2022-08-11T06:48:39;5.45;;;2.75;;
27740;SDS011;15134;48.768;9.184;2022-08-11T06:51:07;6.75;;;2.90;;
27740;SDS011;15134;48.768;9.184;2022-08-11T06:53:43;7.18;;;2.67;;
27740;SDS011;15134;48.768;9.184;2022-08-11T06:56:11;5.85;;;2.65;;
27740;SDS011;15134;48.768;9.184;2022-08-11T06:58:57;6.40;;;2.25;;
27740;SDS011;15134;48.768;9.184;2022-08-11T07:04:29;7.88;;;2.38;;
27740;SDS011;15134;48.768;9.184;2022-08-11T07:07:01;5.90;;;2.40;;
27740;SDS011;15134;48.768;9.184;2022-08-11T07:13:25;7.97;;;2.30;;
27740;SDS011;15134;48.768;9.184;2022-08-11T07:16:12;6.63;;;2.05;;
27740;SDS011;15134;48.768;9.184;2022-08-11T07:18:42;7.75;;;2.40;;
27740;SDS011;15134;48.768;9.184;2022-08-11T07:21:30;4.03;;;1.98;;
27740;SDS011;15134;48.768;9.184;2022-08-11T07:27:21;7.43;;;2.22;;
27740;SDS011;15134;48.768;9.184;2022-08-11T07:30:10;9.20;;;2.63;;
27740;SDS011;15134;48.768;9.184;2022-08-11T07:32:40;5.95;;;2.20;;
27740;SDS011;15134;48.768;9.184;2022-08-11T07:35:23;6.18;;;3.75;;
27740;SDS011;15134;48.768;9.184;2022-08-11T07:38:07;7.18;;;2.63;;
27740;SDS011;15134;48.768;9.184;2022-08-11T07:40:38;4.97;;;2.92;;
27740;SDS011;15134;48.768;9.184;2022-08-11T07:43:06;6.70;;;3.90;;
27740;SDS011;15134;48.768;9.184;2022-08-11T07:45:32;5.93;;;3.35;;
27740;SDS011;15134;48.768;9.184;2022-08-11T07:48:17;5.38;;;2.85;;
27740;SDS011;15134;48.768;9.184;2022-08-11T07:51:03;4.78;;;2.75;;
27740;SDS011;15134;48.768;9.184;2022-08-11T07:53:47;6.88;;;3.28;;
27740;SDS011;15134;48.768;9.184;2022-08-11T07:56:15;7.32;;;3.42;;
27740;SDS011;15134;48.768;9.184;2022-08-11T07:58:43;10.18;;;4.55;;
27740;SDS011;15134;48.768;9.184;2022-08-11T08:01:28;6.70;;;3.83;;
27740;SDS011;15134;48.768;9.184;2022-08-11T08:04:14;6.15;;;2.42;;
27740;SDS011;15134;48.768;9.184;2022-08-11T08:07:03;8.77;;;2.40;;
27740;SDS011;15134;48.768;9.184;2022-08-11T08:09:49;5.97;;;2.38;;
27740;SDS011;15134;48.768;9.184;2022-08-11T08:12:34;6.10;;;4.05;;
27740;SDS011;15134;48.768;9.184;2022-08-11T08:15:19;5.90;;;2.53;;
27740;SDS011;15134;48.768;9.184;2022-08-11T08:18:05;5.57;;;3.40;;
27740;SDS011;15134;48.768;9.184;2022-08-11T08:20:35;6.00;;;3.50;;
27740;SDS011;15134;48.768;9.184;2022-08-11T08:23:02;4.95;;;2.75;;
27740;SDS011;15134;48.768;9.184;2022-08-11T08:25:33;9.15;;;2.30;;
27740;SDS011;15134;48.768;9.184;2022-08-11T08:28:06;9.82;;;2.00;;
27740;SDS011;15134;48.768;9.184;2022-08-11T08:30:35;3.40;;;1.90;;
27740;SDS011;15134;48.768;9.184;2022-08-11T08:33:24;4.95;;;2.28;;
27740;SDS011;15134;48.768;9.184;2022-08-11T08:35:53;3.20;;;1.67;;
27740;SDS011;15134;48.768;9.184;2022-08-11T08:38:42;4.38;;;1.80;;
27740;SDS011;15134;48.768;9.184;2022-08-11T08:41:12;3.97;;;1.80;;
27740;SDS011;15134;48.768;9.184;2022-08-11T08:43:52;4.30;;;1.70;;
27740;SDS011;15134;48.768;9.184;2022-08-11T08:46:22;5.75;;;2.03;;
27740;SDS011;15134;48.768;9.184;2022-08-11T08:48:52;5.47;;;1.58;;
27740;SDS011;15134;48.768;9.184;2022-08-11T08:51:19;2.80;;;1.50;;
27740;SDS011;15134;48.768;9.184;2022-08-11T08:54:02;4.30;;;1.75;;
27740;SDS011;15134;48.768;9.184;2022-08-11T08:56:29;5.40;;;1.88;;
27740;SDS011;15134;48.768;9.184;2022-08-11T08:58:58;5.72;;;1.80;;
27740;SDS011;15134;48.768;9.184;2022-08-11T09:01:32;3.50;;;1.52;;
27740;SDS011;15134;48.768;9.184;2022-08-11T09:04:07;2.65;;;1.50;;
27740;SDS011;15134;48.768;9.184;2022-08-11T09:06:38;5.50;;;1.40;;
27740;SDS011;15134;48.768;9.184;2022-08-11T09:09:05;3.17;;;1.50;;
27740;SDS011;15134;48.768;9.184;2022-08-11T09:11:36;5.28;;;1.67;;
27740;SDS011;15134;48.768;9.184;2022-08-11T09:14:18;6.10;;;1.60;;
27740;SDS011;15134;48.768;9.184;2022-08-11T09:16:49;3.85;;;1.70;;
27740;SDS011;15134;48.768;9.184;2022-08-11T09:19:17;4.80;;;1.77;;
27740;SDS011;15134;48.768;9.184;2022-08-11T09:21:47;4.50;;;1.50;;
27740;SDS011;15134;48.768;9.184;2022-08-11T09:24:33;3.60;;;1.45;;
27740;SDS011;15134;48.768;9.184;2022-08-11T09:27:20;4.95;;;1.48;;
27740;SDS011;15134;48.768;9.184;2022-08-11T09:29:47;4.07;;;1.70;;
27740;SDS011;15134;48.768;9.184;2022-08-11T09:32:14;4.78;;;1.60;;
27740;SDS011;15134;48.768;9.184;2022-08-11T09:34:45;4.57;;;1.30;;
27740;SDS011;15134;48.768;9.184;2022-08-11T09:37:11;4.45;;;1.40;;
27740;SDS011;15134;48.768;9.184;2022-08-11T09:39:56;4.82;;;1.80;;
27740;SDS011;15134;48.768;9.184;2022-08-11T09:42:42;9.63;;;1.80;;
27740;SDS011;15134;48.768;9.184;2022-08-11T09:45:28;3.97;;;1.40;;
27740;SDS011;15134;48.768;9.184;2022-08-11T09:47:56;7.65;;;1.65;;
27740;SDS011;15134;48.768;9.184;2022-08-11T09:50:23;7.00;;;1.70;;
27740;SDS011;15134;48.768;9.184;2022-08-11T09:52:50;3.72;;;1.52;;
27740;SDS011;15134;48.768;9.184;2022-08-11T09:55:15;3.47;;;1.50;;
27740;SDS011;15134;48.768;9.184;2022-08-11T09:57:45;6.28;;;2.55;;
27740;SDS011;15134;48.768;9.184;2022-08-11T10:00:31;4.35;;;1.80;;
27740;SDS011;15134;48.768;9.184;2022-08-11T10:03:03;4.10;;;1.52;;
27740;SDS011;15134;48.768;9.184;2022-08-11T10:05:32;3.72;;;1.80;;
27740;SDS011;15134;48.768;9.184;2022-08-11T10:08:18;4.63;;;1.80;;
27740;SDS011;15134;48.768;9.184;2022-08-11T10:10:46;3.65;;;1.55;;
27740;SDS011;15134;48.768;9.184;2022-08-11T10:13:15;4.55;;;1.90;;
27740;SDS011;15134;48.768;9.184;2022-08-11T10:15:50;7.82;;;1.98;;
27740;SDS011;15134;48.768;9.184;2022-08-11T10:18:27;4.88;;;2.10;;
27740;SDS011;15134;48.768;9.184;2022-08-11T10:21:08;6.32;;;2.40;;
27740;SDS011;15134;48.768;9.184;2022-08-11T10:23:54;8.15;;;4.85;;
27740;SDS011;15134;48.768;9.184;2022-08-11T10:26:43;4.78;;;1.88;;
27740;SDS011;15134;48.768;9.184;2022-08-11T10:29:29;9.13;;;3.90;;
27740;SDS011;15134;48.768;9.184;2022-08-11T10:32:23;5.10;;;2.58;;
27740;SDS011;15134;48.768;9.184;2022-08-11T10:35:08;7.30;;;3.30;;
27740;SDS011;15134;48.768;9.184;2022-08-11T10:37:37;7.43;;;1.95;;
27740;SDS011;15134;48.768;9.184;2022-08-11T10:40:05;6.97;;;2.17;;
27740;SDS011;15134;48.768;9.184;2022-08-11T10:42:33;7.93;;;2.28;;
27740;SDS011;15134;48.768;9.184;2022-08-11T10:45:18;4.45;;;2.20;;
27740;SDS011;15134;48.768;9.184;2022-08-11T10:48:03;3.17;;;1.80;;
27740;SDS011;15134;48.768;9.184;2022-08-11T10:50:31;3.85;;;1.77;;
27740;SDS011;15134;48.768;9.184;2022-08-11T10:53:16;5.03;;;2.00;;
27740;SDS011;15134;48.768;9.184;2022-08-11T10:56:01;6.72;;;3.00;;
27740;SDS011;15134;48.768;9.184;2022-08-11T10:58:47;5.65;;;1.85;;
27740;SDS011;15134;48.768;9.184;2022-08-11T11:01:15;6.22;;;3.05;;
27740;SDS011;15134;48.768;9.184;2022-08-11T11:03:58;3.58;;;1.85;;
27740;SDS011;15134;48.768;9.184;2022-08-11T11:11:41;6.22;;;2.30;;
27740;SDS011;15134;48.768;9.184;2022-08-11T11:14:30;4.32;;;2.13;;
27740;SDS011;15134;48.768;9.184;2022-08-11T11:17:22;7.10;;;1.98;;
27740;SDS011;15134;48.768;9.184;2022-08-11T11:20:09;3.30;;;1.70;;
27740;SDS011;15134;48.768;9.184;2022-08-11T11:22:41;8.98;;;2.78;;
27740;SDS011;15134;48.768;9.184;2022-08-11T11:25:29;5.53;;;1.77;;
27740;SDS011;15134;48.768;9.184;2022-08-11T11:28:25;6.25;;;2.30;;
27740;SDS011;15134;48.768;9.184;2022-08-11T11:33:52;3.28;;;1.83;;
27740;SDS011;15134;48.768;9.184;2022-08-11T11:36:43;3.38;;;1.88;;
27740;SDS011;15134;48.768;9.184;2022-08-11T11:39:12;5.13;;;2.00;;
27740;SDS011;15134;48.768;9.184;2022-08-11T11:41:43;6.07;;;1.85;;
27740;SDS011;15134;48.768;9.184;2022-08-11T11:44:10;3.35;;;1.55;;
27740;SDS011;15134;48.768;9.184;2022-08-11T11:46:37;4.95;;;2.55;;
27740;SDS011;15134;48.768;9.184;2022-08-11T11:49:05;3.75;;;1.65;;
27740;SDS011;15134;48.768;9.184;2022-08-11T11:51:35;30.85;;;6.88;;
27740;SDS011;15134;48.768;9.184;2022-08-11T11:54:01;14.05;;;2.90;;
27740;SDS011;15134;48.768;9.184;2022-08-11T11:56:29;5.47;;;1.58;;
27740;SDS011;15134;48.768;9.184;2022-08-11T11:58:55;4.50;;;1.52;;
27740;SDS011;15134;48.768;9.184;2022-08-11T12:01:40;3.28;;;1.50;;
27740;SDS011;15134;48.768;9.184;2022-08-11T12:04:10;4.90;;;1.73;;
27740;SDS011;15134;48.768;9.184;2022-08-11T12:06:38;5.63;;;1.90;;
27740;SDS011;15134;48.768;9.184;2022-08-11T12:09:04;4.43;;;1.80;;
27740;SDS011;15134;48.768;9.184;2022-08-11T12:14:19;3.35;;;1.80;;
27740;SDS011;15134;48.768;9.184;2022-08-11T12:16:46;5.65;;;2.30;;
27740;SDS011;15134;48.768;9.184;2022-08-11T12:19:14;6.90;;;3.47;;
27740;SDS011;15134;48.768;9.184;2022-08-11T12:21:41;6.97;;;1.50;;
27740;SDS011;15134;48.768;9.184;2022-08-11T12:24:27;5.93;;;1.90;;
27740;SDS011;15134;48.768;9.184;2022-08-11T12:27:13;3.90;;;1.60;;
27740;SDS011;15134;48.768;9.184;2022-08-11T12:29:50;4.72;;;1.60;;
27740;SDS011;15134;48.768;9.184;2022-08-11T12:32:21;5.35;;;2.17;;
27740;SDS011;15134;48.768;9.184;2022-08-11T12:34:50;6.00;;;2.80;;
27740;SDS011;15134;48.768;9.184;2022-08-11T12:37:19;2.45;;;1.50;;
27740;SDS011;15134;48.768;9.184;2022-08-11T12:39:48;6.07;;;1.80;;
27740;SDS011;15134;48.768;9.184;2022-08-11T12:42:34;5.20;;;1.67;;
27740;SDS011;15134;48.768;9.184;2022-08-11T12:45:22;3.70;;;1.63;;
27740;SDS011;15134;48.768;9.184;2022-08-11T12:47:58;4.00;;;1.80;;
27740;SDS011;15134;48.768;9.184;2022-08-11T12:50:53;6.93;;;1.83;;
27740;SDS011;15134;48.768;9.184;2022-08-11T12:53:55;5.63;;;1.95;;
27740;SDS011;15134;48.768;9.184;2022-08-11T12:56:29;3.50;;;1.70;;
27740;SDS011;15134;48.768;9.184;2022-08-11T12:59:20;4.23;;;1.63;;
27740;SDS011;15134;48.768;9.184;2022-08-11T13:02:06;3.42;;;1.70;;
27740;SDS011;15134;48.768;9.184;2022-08-11T13:04:54;5.03;;;1.80;;
27740;SDS011;15134;48.768;9.184;2022-08-11T13:07:24;3.45;;;1.60;;
27740;SDS011;15134;48.768;9.184;2022-08-11T13:09:52;5.88;;;2.53;;
27740;SDS011;15134;48.768;9.184;2022-08-11T13:12:20;4.60;;;2.40;;
27740;SDS011;15134;48.768;9.184;2022-08-11T13:15:06;4.25;;;1.88;;
27740;SDS011;15134;48.768;9.184;2022-08-11T13:17:33;4.55;;;1.67;;
27740;SDS011;15134;48.768;9.184;2022-08-11T13:20:00;3.58;;;2.03;;
27740;SDS011;15134;48.768;9.184;2022-08-11T13:24:53;4.45;;;1.95;;
27740;SDS011;15134;48.768;9.184;2022-08-11T13:27:20;5.30;;;1.60;;
27740;SDS011;15134;48.768;9.184;2022-08-11T13:29:47;4.78;;;1.75;;
27740;SDS011;15134;48.768;9.184;2022-08-11T13:32:14;8.90;;;2.05;;
27740;SDS011;15134;48.768;9.184;2022-08-11T13:34:41;4.25;;;1.77;;
27740;SDS011;15134;48.768;9.184;2022-08-11T13:37:11;6.93;;;2.20;;
27740;SDS011;15134;48.768;9.184;2022-08-11T13:39:39;5.18;;;2.28;;
27740;SDS011;15134;48.768;9.184;2022-08-11T13:42:11;7.40;;;2.67;;
27740;SDS011;15134;48.768;9.184;2022-08-11T13:44:40;5.20;;;2.17;;
27740;SDS011;15134;48.768;9.184;2022-08-11T13:47:07;7.03;;;1.80;;
27740;SDS011;15134;48.768;9.184;2022-08-11T13:49:38;4.55;;;1.60;;
27740;SDS011;15134;48.768;9.184;2022-08-11T13:52:05;5.20;;;2.20;;
27740;SDS011;15134;48.768;9.184;2022-08-11T13:54:36;4.10;;;1.80;;
27740;SDS011;15134;48.768;9.184;2022-08-11T13:57:06;5.68;;;2.45;;
27740;SDS011;15134;48.768;9.184;2022-08-11T13:59:33;5.68;;;1.75;;
27740;SDS011;15134;48.768;9.184;2022-08-11T14:02:00;4.35;;;2.40;;
27740;SDS011;15134;48.768;9.184;2022-08-11T14:07:05;5.25;;;2.50;;
27740;SDS011;15134;48.768;9.184;2022-08-11T14:09:35;5.95;;;2.17;;
27740;SDS011;15134;48.768;9.184;2022-08-11T14:12:06;3.78;;;1.73;;
27740;SDS011;15134;48.768;9.184;2022-08-11T14:15:01;5.78;;;1.73;;
27740;SDS011;15134;48.768;9.184;2022-08-11T14:17:53;3.67;;;1.90;;
27740;SDS011;15134;48.768;9.184;2022-08-11T14:20:25;4.38;;;1.90;;
27740;SDS011;15134;48.768;9.184;2022-08-11T14:23:14;5.68;;;1.80;;
27740;SDS011;15134;48.768;9.184;2022-08-11T14:25:42;6.50;;;3.38;;
27740;SDS011;15134;48.768;9.184;2022-08-11T14:28:29;7.80;;;2.40;;
27740;SDS011;15134;48.768;9.184;2022-08-11T14:30:57;4.80;;;2.40;;
27740;SDS011;15134;48.768;9.184;2022-08-11T14:33:24;3.40;;;1.70;;
27740;SDS011;15134;48.768;9.184;2022-08-11T14:35:51;4.32;;;1.30;;
27740;SDS011;15134;48.768;9.184;2022-08-11T14:38:17;3.17;;;1.73;;
27740;SDS011;15134;48.768;9.184;2022-08-11T14:40:43;3.33;;;1.65;;
27740;SDS011;15134;48.768;9.184;2022-08-11T14:43:30;4.43;;;1.90;;
27740;SDS011;15134;48.768;9.184;2022-08-11T14:46:14;6.40;;;2.10;;
27740;SDS011;15134;48.768;9.184;2022-08-11T14:49:06;6.20;;;1.80;;
27740;SDS011;15134;48.768;9.184;2022-08-11T14:53:59;6.80;;;1.92;;
27740;SDS011;15134;48.768;9.184;2022-08-11T14:56:43;4.00;;;1.27;;
27740;SDS011;15134;48.768;9.184;2022-08-11T14:59:10;5.88;;;1.70;;
27740;SDS011;15134;48.768;9.184;2022-08-11T15:01:37;4.85;;;1.73;;
27740;SDS011;15134;48.768;9.184;2022-08-11T15:04:22;5.68;;;1.50;;
27740;SDS011;15134;48.768;9.184;2022-08-11T15:06:49;4.28;;;1.55;;
27740;SDS011;15134;48.768;9.184;2022-08-11T15:09:15;4.18;;;2.08;;
27740;SDS011;15134;48.768;9.184;2022-08-11T15:11:42;2.70;;;1.30;;
27740;SDS011;15134;48.768;9.184;2022-08-11T15:14:27;4.60;;;2.08;;
27740;SDS011;15134;48.768;9.184;2022-08-11T15:17:12;6.50;;;2.33;;
27740;SDS011;15134;48.768;9.184;2022-08-11T15:19:40;3.20;;;1.75;;
27740;SDS011;15134;48.768;9.184;2022-08-11T15:22:27;5.00;;;1.90;;
27740;SDS011;15134;48.768;9.184;2022-08-11T15:25:12;3.83;;;2.00;;
27740;SDS011;15134;48.768;9.184;2022-08-11T15:30:24;3.42;;;1.63;;
27740;SDS011;15134;48.768;9.184;2022-08-11T15:33:10;4.03;;;1.60;;
27740;SDS011;15134;48.768;9.184;2022-08-11T15:35:57;5.18;;;1.55;;
27740;SDS011;15134;48.768;9.184;2022-08-11T15:38:53;5.55;;;2.42;;
27740;SDS011;15134;48.768;9.184;2022-08-11T15:41:43;3.55;;;1.40;;
27740;SDS011;15134;48.768;9.184;2022-08-11T15:44:32;6.13;;;2.10;;
27740;SDS011;15134;48.768;9.184;2022-08-11T15:47:24;3.40;;;1.63;;
27740;SDS011;15134;48.768;9.184;2022-08-11T15:49:53;8.13;;;1.50;;
27740;SDS011;15134;48.768;9.184;2022-08-11T15:52:24;4.28;;;1.88;;
27740;SDS011;15134;48.768;9.184;2022-08-11T15:54:53;3.95;;;1.58;;
27740;SDS011;15134;48.768;9.184;2022-08-11T15:57:23;5.85;;;2.20;;
27740;SDS011;15134;48.768;9.184;2022-08-11T16:00:18;3.15;;;1.40;;
27740;SDS011;15134;48.768;9.184;2022-08-11T16:03:02;2.78;;;1.40;;
27740;SDS011;15134;48.768;9.184;2022-08-11T16:05:50;6.50;;;2.65;;
27740;SDS011;15134;48.768;9.184;2022-08-11T16:08:17;5.25;;;2.78;;
27740;SDS011;15134;48.768;9.184;2022-08-11T16:10:49;3.15;;;1.85;;
27740;SDS011;15134;48.768;9.184;2022-08-11T16:13:17;6.10;;;2.10;;
27740;SDS011;15134;48.768;9.184;2022-08-11T16:18:32;4.85;;;1.98;;
27740;SDS011;15134;48.768;9.184;2022-08-11T16:21:15;3.83;;;2.00;;
27740;SDS011;15134;48.768;9.184;2022-08-11T16:23:47;3.40;;;1.20;;
27740;SDS011;15134;48.768;9.184;2022-08-11T16:26:17;5.53;;;2.20;;
27740;SDS011;15134;48.768;9.184;2022-08-11T16:28:52;4.65;;;2.17;;
27740;SDS011;15134;48.768;9.184;2022-08-11T16:31:23;5.15;;;1.90;;
27740;SDS011;15134;48.768;9.184;2022-08-11T16:33:50;3.67;;;1.52;;
27740;SDS011;15134;48.768;9.184;2022-08-11T16:36:18;3.75;;;1.60;;
27740;SDS011;15134;48.768;9.184;2022-08-11T16:39:04;3.15;;;1.50;;
27740;SDS011;15134;48.768;9.184;2022-08-11T16:41:32;4.43;;;1.77;;
27740;SDS011;15134;48.768;9.184;2022-08-11T16:44:19;7.57;;;1.88;;
27740;SDS011;15134;48.768;9.184;2022-08-11T16:47:05;5.32;;;1.52;;
27740;SDS011;15134;48.768;9.184;2022-08-11T16:49:38;2.72;;;1.60;;
27740;SDS011;15134;48.768;9.184;2022-08-11T16:54:36;5.53;;;1.63;;
27740;SDS011;15134;48.768;9.184;2022-08-11T16:57:04;5.35;;;1.67;;
27740;SDS011;15134;48.768;9.184;2022-08-11T16:59:53;4.70;;;1.73;;
27740;SDS011;15134;48.768;9.184;2022-08-11T17:02:23;5.45;;;1.73;;
27740;SDS011;15134;48.768;9.184;2022-08-11T17:05:13;3.15;;;1.50;;
27740;SDS011;15134;48.768;9.184;2022-08-11T17:08:01;5.13;;;1.80;;
27740;SDS011;15134;48.768;9.184;2022-08-11T17:10:49;4.63;;;1.50;;
27740;SDS011;15134;48.768;9.184;2022-08-11T17:13:46;7.22;;;3.20;;
27740;SDS011;15134;48.768;9.184;2022-08-11T17:16:21;3.78;;;2.22;;
27740;SDS011;15134;48.768;9.184;2022-08-11T17:21:43;4.05;;;2.50;;
27740;SDS011;15134;48.768;9.184;2022-08-11T17:24:33;3.83;;;1.83;;
27740;SDS011;15134;48.768;9.184;2022-08-11T17:27:02;4.18;;;1.75;;
27740;SDS011;15134;48.768;9.184;2022-08-11T17:29:35;3.38;;;1.70;;
27740;SDS011;15134;48.768;9.184;2022-08-11T17:32:11;8.00;;;2.05;;
27740;SDS011;15134;48.768;9.184;2022-08-11T17:35:02;4.85;;;1.92;;
27740;SDS011;15134;48.768;9.184;2022-08-11T17:37:51;3.42;;;1.55;;
27740;SDS011;15134;48.768;9.184;2022-08-11T17:40:18;5.40;;;1.95;;
27740;SDS011;15134;48.768;9.184;2022-08-11T17:42:50;6.32;;;2.35;;
27740;SDS011;15134;48.768;9.184;2022-08-11T17:45:37;5.07;;;1.80;;
27740;SDS011;15134;48.768;9.184;2022-08-11T17:48:23;3.35;;;1.80;;
27740;SDS011;15134;48.768;9.184;2022-08-11T17:51:25;4.78;;;2.10;;
27740;SDS011;15134;48.768;9.184;2022-08-11T17:54:04;3.85;;;1.83;;
27740;SDS011;15134;48.768;9.184;2022-08-11T17:56:49;4.05;;;1.90;;
27740;SDS011;15134;48.768;9.184;2022-08-11T17:59:36;5.40;;;1.98;;
27740;SDS011;15134;48.768;9.184;2022-08-11T18:02:17;6.18;;;1.75;;
27740;SDS011;15134;48.768;9.184;2022-08-11T18:05:04;5.00;;;2.20;;
27740;SDS011;15134;48.768;9.184;2022-08-11T18:07:30;24.63;;;2.88;;
27740;SDS011;15134;48.768;9.184;2022-08-11T18:10:17;8.90;;;1.90;;
27740;SDS011;15134;48.768;9.184;2022-08-11T18:13:03;5.60;;;1.70;;
27740;SDS011;15134;48.768;9.184;2022-08-11T18:15:48;4.63;;;1.83;;
27740;SDS011;15134;48.768;9.184;2022-08-11T18:18:34;4.43;;;1.98;;
27740;SDS011;15134;48.768;9.184;2022-08-11T18:21:18;8.10;;;5.13;;
27740;SDS011;15134;48.768;9.184;2022-08-11T18:24:07;4.00;;;1.58;;
27740;SDS011;15134;48.768;9.184;2022-08-11T18:26:56;5.82;;;2.80;;
27740;SDS011;15134;48.768;9.184;2022-08-11T18:29:42;15.63;;;9.35;;
27740;SDS011;15134;48.768;9.184;2022-08-11T18:32:30;10.90;;;7.20;;
27740;SDS011;15134;48.768;9.184;2022-08-11T18:35:17;9.90;;;5.47;;
27740;SDS011;15134;48.768;9.184;2022-08-11T18:38:03;7.38;;;2.22;;
27740;SDS011;15134;48.768;9.184;2022-08-11T18:40:51;7.75;;;3.78;;
27740;SDS011;15134;48.768;9.184;2022-08-11T18:43:37;5.22;;;2.10;;
27740;SDS011;15134;48.768;9.184;2022-08-11T18:46:25;6.95;;;2.67;;
27740;SDS011;15134;48.768;9.184;2022-08-11T18:49:18;40.30;;;30.10;;
27740;SDS011;15134;48.768;9.184;2022-08-11T18:52:06;10.57;;;6.90;;
27740;SDS011;15134;48.768;9.184;2022-08-11T18:54:53;9.60;;;6.25;;
27740;SDS011;15134;48.768;9.184;2022-08-11T18:57:41;10.95;;;4.47;;
27740;SDS011;15134;48.768;9.184;2022-08-11T19:00:30;8.68;;;4.50;;
27740;SDS011;15134;48.768;9.184;2022-08-11T19:03:16;21.63;;;17.25;;
27740;SDS011;15134;48.768;9.184;2022-08-11T19:06:03;45.33;;;32.67;;
27740;SDS011;15134;48.768;9.184;2022-08-11T19:08:53;21.35;;;14.43;;
27740;SDS011;15134;48.768;9.184;2022-08-11T19:11:41;8.13;;;4.65;;
27740;SDS011;15134;48.768;9.184;2022-08-11T19:14:28;5.82;;;3.38;;
27740;SDS011;15134;48.768;9.184;2022-08-11T19:17:13;6.88;;;3.70;;
27740;SDS011;15134;48.768;9.184;2022-08-11T19:19:59;6.32;;;2.17;;
27740;SDS011;15134;48.768;9.184;2022-08-11T19:22:47;7.22;;;2.38;;